sensor_id;sensor_type;location;lat;lon;timestamp;temperature;humidity
34492;DHT22;20737;49.908;8.126;2023-02-28T00:00:12;-1.00;99.90
34492;DHT22;20737;49.908;8.126;2023-02-28T00:02:40;-1.00;99.90
34492;DHT22;20737;49.908;8.126;2023-02-28T00:05:09;-1.00;99.90
34492;DHT22;20737;49.908;8.126;2023-02-28T00:07:36;-1.00;99.90
34492;DHT22;20737;49.908;8.126;2023-02-28T00:10:07;-1.00;99.90
34492;DHT22;20737;49.908;8.126;2023-02-28T00:15:01;-1.00;99.90
34492;DHT22;20737;49.908;8.126;2023-02-28T00:17:28;-1.10;99.90
34492;DHT22;20737;49.908;8.126;2023-02-28T00:19:54;-1.00;99.90
34492;DHT22;20737;49.908;8.126;2023-02-28T00:22:22;-0.90;99.90
34492;DHT22;20737;49.908;8.126;2023-02-28T00:24:49;-0.80;99.90
34492;DHT22;20737;49.908;8.126;2023-02-28T00:27:15;-0.80;99.90
34492;DHT22;20737;49.908;8.126;2023-02-28T00:29:42;-0.70;99.90
34492;DHT22;20737;49.908;8.126;2023-02-28T00:32:10;-0.70;99.90
34492;DHT22;20737;49.908;8.126;2023-02-28T00:34:37;-0.70;99.90
34492;DHT22;20737;49.908;8.126;2023-02-28T00:37:04;-0.70;99.90
34492;DHT22;20737;49.908;8.126;2023-02-28T00:39:34;-0.70;99.90
34492;DHT22;20737;49.908;8.126;2023-02-28T00:42:02;-0.80;99.90
34492;DHT22;20737;49.908;8.126;2023-02-28T00:44:29;-0.80;99.90
34492;DHT22;20737;49.908;8.126;2023-02-28T00:46:56;-0.70;99.90
34492;DHT22;20737;49.908;8.126;2023-02-28T00:49:24;-0.80;99.90
34492;DHT22;20737;49.908;8.126;2023-02-28T00:51:52;-0.80;99.90
34492;DHT22;20737;49.908;8.126;2023-02-28T00:54:19;-0.70;99.90
34492;DHT22;20737;49.908;8.126;2023-02-28T00:56:46;-0.70;99.90
34492;DHT22;20737;49.908;8.126;2023-02-28T00:59:14;-0.80;99.90
34492;DHT22;20737;49.908;8.126;2023-02-28T01:01:41;-0.80;99.90
34492;DHT22;20737;49.908;8.126;2023-02-28T01:04:08;-0.90;99.90
34492;DHT22;20737;49.908;8.126;2023-02-28T01:06:38;-0.90;99.90
34492;DHT22;20737;49.908;8.126;2023-02-28T01:09:05;-1.00;99.90
34492;DHT22;20737;49.908;8.126;2023-02-28T01:11:33;-1.00;99.90
34492;DHT22;20737;49.908;8.126;2023-02-28T01:14:02;-1.00;99.90
34492;DHT22;20737;49.908;8.126;2023-02-28T01:16:30;-1.10;99.90
34492;DHT22;20737;49.908;8.126;2023-02-28T01:18:57;-1.10;99.90
34492;DHT22;20737;49.908;8.126;2023-02-28T01:21:24;-1.20;99.90
34492;DHT22;20737;49.908;8.126;2023-02-28T01:23:56;-1.20;99.90
34492;DHT22;20737;49.908;8.126;2023-02-28T01:26:24;-1.20;99.90
34492;DHT22;20737;49.908;8.126;2023-02-28T01:28:52;-1.30;99.90
34492;DHT22;20737;49.908;8.126;2023-02-28T01:31:20;-1.30;99.90
34492;DHT22;20737;49.908;8.126;2023-02-28T01:33:47;-1.30;99.90
34492;DHT22;20737;49.908;8.126;2023-02-28T01:36:16;-1.40;99.90
34492;DHT22;20737;49.908;8.126;2023-02-28T01:38:43;-1.40;99.90
34492;DHT22;20737;49.908;8.126;2023-02-28T01:41:15;-1.40;99.90
34492;DHT22;20737;49.908;8.126;2023-02-28T01:43:59;-1.30;99.90
34492;DHT22;20737;49.908;8.126;2023-02-28T01:46:29;-1.40;99.90
34492;DHT22;20737;49.908;8.126;2023-02-28T01:49:00;-1.40;99.90
34492;DHT22;20737;49.908;8.126;2023-02-28T01:51:30;-1.50;99.90
34492;DHT22;20737;49.908;8.126;2023-02-28T01:54:02;-1.50;99.90
34492;DHT22;20737;49.908;8.126;2023-02-28T01:56:34;-1.60;99.90
34492;DHT22;20737;49.908;8.126;2023-02-28T01:59:03;-1.60;99.90
34492;DHT22;20737;49.908;8.126;2023-02-28T02:01:30;-1.60;99.90
34492;DHT22;20737;49.908;8.126;2023-02-28T02:03:59;-1.70;99.90
34492;DHT22;20737;49.908;8.126;2023-02-28T02:06:30;-1.70;99.90
34492;DHT22;20737;49.908;8.126;2023-02-28T02:08:57;-1.60;99.90
34492;DHT22;20737;49.908;8.126;2023-02-28T02:11:24;-1.70;99.90
34492;DHT22;20737;49.908;8.126;2023-02-28T02:17:07;-1.70;99.90
34492;DHT22;20737;49.908;8.126;2023-02-28T02:26:23;-1.80;99.90
34492;DHT22;20737;49.908;8.126;2023-02-28T02:29:14;-1.70;99.90
34492;DHT22;20737;49.908;8.126;2023-02-28T02:32:14;-1.70;99.90
34492;DHT22;20737;49.908;8.126;2023-02-28T02:34:51;-1.70;99.90
34492;DHT22;20737;49.908;8.126;2023-02-28T02:37:27;-1.70;99.90
34492;DHT22;20737;49.908;8.126;2023-02-28T02:40:00;-1.70;99.90
34492;DHT22;20737;49.908;8.126;2023-02-28T02:42:33;-1.60;99.90
34492;DHT22;20737;49.908;8.126;2023-02-28T02:45:08;-1.60;99.90
34492;DHT22;20737;49.908;8.126;2023-02-28T02:47:39;-1.60;99.90
34492;DHT22;20737;49.908;8.126;2023-02-28T02:50:12;-1.60;99.90
34492;DHT22;20737;49.908;8.126;2023-02-28T02:52:45;-1.50;99.90
34492;DHT22;20737;49.908;8.126;2023-02-28T02:55:17;-1.40;99.90
34492;DHT22;20737;49.908;8.126;2023-02-28T02:57:47;-1.50;99.90
34492;DHT22;20737;49.908;8.126;2023-02-28T03:00:17;-1.60;99.90
34492;DHT22;20737;49.908;8.126;2023-02-28T03:02:49;-1.60;99.90
34492;DHT22;20737;49.908;8.126;2023-02-28T03:05:21;-1.60;99.90
34492;DHT22;20737;49.908;8.126;2023-02-28T03:07:50;-1.60;99.90
34492;DHT22;20737;49.908;8.126;2023-02-28T03:10:33;-1.40;99.90
34492;DHT22;20737;49.908;8.126;2023-02-28T03:13:11;-1.40;99.90
34492;DHT22;20737;49.908;8.126;2023-02-28T03:15:44;-1.30;99.90
34492;DHT22;20737;49.908;8.126;2023-02-28T03:18:25;-1.30;99.90
34492;DHT22;20737;49.908;8.126;2023-02-28T03:21:02;-1.20;99.90
34492;DHT22;20737;49.908;8.126;2023-02-28T03:23:40;-1.30;99.90
34492;DHT22;20737;49.908;8.126;2023-02-28T03:26:16;-1.10;99.90
34492;DHT22;20737;49.908;8.126;2023-02-28T03:28:51;-1.10;99.90
34492;DHT22;20737;49.908;8.126;2023-02-28T03:31:22;-1.10;99.90
34492;DHT22;20737;49.908;8.126;2023-02-28T03:33:57;-1.00;99.90
34492;DHT22;20737;49.908;8.126;2023-02-28T03:36:29;-1.00;99.90
34492;DHT22;20737;49.908;8.126;2023-02-28T03:38:59;-0.90;99.90
34492;DHT22;20737;49.908;8.126;2023-02-28T03:41:31;-1.00;99.90
34492;DHT22;20737;49.908;8.126;2023-02-28T03:44:03;-0.90;99.90
34492;DHT22;20737;49.908;8.126;2023-02-28T03:46:37;-0.90;99.90
34492;DHT22;20737;49.908;8.126;2023-02-28T03:49:09;-1.00;99.90
34492;DHT22;20737;49.908;8.126;2023-02-28T03:51:39;-0.90;99.90
34492;DHT22;20737;49.908;8.126;2023-02-28T03:54:13;-1.00;99.90
34492;DHT22;20737;49.908;8.126;2023-02-28T03:56:47;-1.10;99.90
34492;DHT22;20737;49.908;8.126;2023-02-28T03:59:17;-1.20;99.90
34492;DHT22;20737;49.908;8.126;2023-02-28T04:01:47;-1.10;99.90
34492;DHT22;20737;49.908;8.126;2023-02-28T04:04:16;-1.00;99.90
34492;DHT22;20737;49.908;8.126;2023-02-28T04:06:45;-0.90;99.90
34492;DHT22;20737;49.908;8.126;2023-02-28T04:09:14;-0.90;99.90
34492;DHT22;20737;49.908;8.126;2023-02-28T04:11:42;-0.90;99.90
34492;DHT22;20737;49.908;8.126;2023-02-28T04:14:17;-0.90;99.90
34492;DHT22;20737;49.908;8.126;2023-02-28T04:16:44;-1.00;99.90
34492;DHT22;20737;49.908;8.126;2023-02-28T04:19:12;-1.10;99.90
34492;DHT22;20737;49.908;8.126;2023-02-28T04:21:41;-1.00;99.90
34492;DHT22;20737;49.908;8.126;2023-02-28T04:24:11;-0.90;99.90
34492;DHT22;20737;49.908;8.126;2023-02-28T04:26:40;-0.90;99.90
34492;DHT22;20737;49.908;8.126;2023-02-28T04:29:09;-0.90;99.90
34492;DHT22;20737;49.908;8.126;2023-02-28T04:31:36;-0.90;99.90
34492;DHT22;20737;49.908;8.126;2023-02-28T04:34:03;-0.90;99.90
34492;DHT22;20737;49.908;8.126;2023-02-28T04:36:30;-0.90;99.90
34492;DHT22;20737;49.908;8.126;2023-02-28T04:39:00;-1.10;99.90
34492;DHT22;20737;49.908;8.126;2023-02-28T04:41:30;-1.10;99.90
34492;DHT22;20737;49.908;8.126;2023-02-28T04:43:57;-1.10;99.90
34492;DHT22;20737;49.908;8.126;2023-02-28T04:46:24;-1.00;99.90
34492;DHT22;20737;49.908;8.126;2023-02-28T04:48:50;-1.10;99.90
34492;DHT22;20737;49.908;8.126;2023-02-28T04:51:18;-1.10;99.90
34492;DHT22;20737;49.908;8.126;2023-02-28T04:53:47;-1.30;99.90
34492;DHT22;20737;49.908;8.126;2023-02-28T04:56:17;-1.30;99.90
34492;DHT22;20737;49.908;8.126;2023-02-28T04:58:45;-1.30;99.90
34492;DHT22;20737;49.908;8.126;2023-02-28T05:01:19;-1.40;99.90
34492;DHT22;20737;49.908;8.126;2023-02-28T05:03:48;-1.40;99.90
34492;DHT22;20737;49.908;8.126;2023-02-28T05:06:15;-1.40;99.90
34492;DHT22;20737;49.908;8.126;2023-02-28T05:08:43;-1.40;99.90
34492;DHT22;20737;49.908;8.126;2023-02-28T05:11:14;-1.40;99.90
34492;DHT22;20737;49.908;8.126;2023-02-28T05:13:42;-1.30;99.90
34492;DHT22;20737;49.908;8.126;2023-02-28T05:16:13;-1.30;99.90
34492;DHT22;20737;49.908;8.126;2023-02-28T05:18:40;-1.20;99.90
34492;DHT22;20737;49.908;8.126;2023-02-28T05:21:23;-1.20;99.90
34492;DHT22;20737;49.908;8.126;2023-02-28T05:23:50;-1.20;99.90
34492;DHT22;20737;49.908;8.126;2023-02-28T05:26:17;-1.20;99.90
34492;DHT22;20737;49.908;8.126;2023-02-28T05:28:46;-1.30;99.90
34492;DHT22;20737;49.908;8.126;2023-02-28T05:31:15;-1.10;99.90
34492;DHT22;20737;49.908;8.126;2023-02-28T05:33:44;-1.20;99.90
34492;DHT22;20737;49.908;8.126;2023-02-28T05:36:12;-1.20;99.90
34492;DHT22;20737;49.908;8.126;2023-02-28T05:38:41;-1.20;99.90
34492;DHT22;20737;49.908;8.126;2023-02-28T05:41:08;-1.20;99.90
34492;DHT22;20737;49.908;8.126;2023-02-28T05:43:36;-1.20;99.90
34492;DHT22;20737;49.908;8.126;2023-02-28T05:46:04;-1.10;99.90
34492;DHT22;20737;49.908;8.126;2023-02-28T05:48:34;-1.00;99.90
34492;DHT22;20737;49.908;8.126;2023-02-28T05:51:01;-1.10;99.90
34492;DHT22;20737;49.908;8.126;2023-02-28T05:53:29;-1.10;99.90
34492;DHT22;20737;49.908;8.126;2023-02-28T05:55:56;-1.20;99.90
34492;DHT22;20737;49.908;8.126;2023-02-28T05:58:24;-1.10;99.90
34492;DHT22;20737;49.908;8.126;2023-02-28T06:00:54;-1.20;99.90
34492;DHT22;20737;49.908;8.126;2023-02-28T06:03:21;-1.20;99.90
34492;DHT22;20737;49.908;8.126;2023-02-28T06:05:49;-1.20;99.90
34492;DHT22;20737;49.908;8.126;2023-02-28T06:08:18;-1.20;99.90
34492;DHT22;20737;49.908;8.126;2023-02-28T06:10:47;-1.20;99.90
34492;DHT22;20737;49.908;8.126;2023-02-28T06:13:14;-1.10;99.90
34492;DHT22;20737;49.908;8.126;2023-02-28T06:15:42;-1.20;99.90
34492;DHT22;20737;49.908;8.126;2023-02-28T06:18:09;-1.10;99.90
34492;DHT22;20737;49.908;8.126;2023-02-28T06:20:36;-1.10;99.90
34492;DHT22;20737;49.908;8.126;2023-02-28T06:23:04;-1.30;99.90
34492;DHT22;20737;49.908;8.126;2023-02-28T06:25:31;-1.20;99.90
34492;DHT22;20737;49.908;8.126;2023-02-28T06:27:57;-1.10;99.90
34492;DHT22;20737;49.908;8.126;2023-02-28T06:30:24;-1.10;99.90
34492;DHT22;20737;49.908;8.126;2023-02-28T06:32:53;-1.10;99.90
34492;DHT22;20737;49.908;8.126;2023-02-28T06:35:20;-1.00;99.90
34492;DHT22;20737;49.908;8.126;2023-02-28T06:37:47;-1.00;99.90
34492;DHT22;20737;49.908;8.126;2023-02-28T06:40:15;-0.90;99.90
34492;DHT22;20737;49.908;8.126;2023-02-28T06:42:42;-0.90;99.90
34492;DHT22;20737;49.908;8.126;2023-02-28T06:45:10;-0.80;99.90
34492;DHT22;20737;49.908;8.126;2023-02-28T06:47:38;-0.40;99.90
34492;DHT22;20737;49.908;8.126;2023-02-28T06:50:06;0.10;99.90
34492;DHT22;20737;49.908;8.126;2023-02-28T06:52:33;0.50;99.90
34492;DHT22;20737;49.908;8.126;2023-02-28T06:55:01;1.00;99.90
34492;DHT22;20737;49.908;8.126;2023-02-28T06:57:30;1.80;99.90
34492;DHT22;20737;49.908;8.126;2023-02-28T06:59:58;2.40;99.90
34492;DHT22;20737;49.908;8.126;2023-02-28T07:02:25;3.10;99.90
34492;DHT22;20737;49.908;8.126;2023-02-28T07:04:52;3.90;99.90
34492;DHT22;20737;49.908;8.126;2023-02-28T07:07:19;4.20;99.90
34492;DHT22;20737;49.908;8.126;2023-02-28T07:09:46;4.90;99.90
34492;DHT22;20737;49.908;8.126;2023-02-28T07:12:12;5.70;99.90
34492;DHT22;20737;49.908;8.126;2023-02-28T07:14:40;6.30;98.90
34492;DHT22;20737;49.908;8.126;2023-02-28T07:17:07;6.60;97.20
34492;DHT22;20737;49.908;8.126;2023-02-28T07:19:36;7.00;95.00
34492;DHT22;20737;49.908;8.126;2023-02-28T07:22:02;7.50;93.20
34492;DHT22;20737;49.908;8.126;2023-02-28T07:24:30;7.90;91.70
34492;DHT22;20737;49.908;8.126;2023-02-28T07:26:56;8.60;87.60
34492;DHT22;20737;49.908;8.126;2023-02-28T07:29:24;8.80;83.60
34492;DHT22;20737;49.908;8.126;2023-02-28T07:31:55;8.60;83.10
34492;DHT22;20737;49.908;8.126;2023-02-28T07:34:24;8.50;81.30
34492;DHT22;20737;49.908;8.126;2023-02-28T07:36:53;8.60;79.70
34492;DHT22;20737;49.908;8.126;2023-02-28T07:39:20;8.60;80.30
34492;DHT22;20737;49.908;8.126;2023-02-28T07:41:47;9.00;78.20
34492;DHT22;20737;49.908;8.126;2023-02-28T07:44:14;9.00;76.70
34492;DHT22;20737;49.908;8.126;2023-02-28T07:46:41;8.30;77.80
34492;DHT22;20737;49.908;8.126;2023-02-28T07:49:10;8.10;78.30
34492;DHT22;20737;49.908;8.126;2023-02-28T07:51:39;7.80;78.00
34492;DHT22;20737;49.908;8.126;2023-02-28T07:54:06;7.90;79.40
34492;DHT22;20737;49.908;8.126;2023-02-28T07:56:33;7.90;79.50
34492;DHT22;20737;49.908;8.126;2023-02-28T07:59:00;8.00;78.50
34492;DHT22;20737;49.908;8.126;2023-02-28T08:01:27;7.80;77.80
34492;DHT22;20737;49.908;8.126;2023-02-28T08:03:53;7.40;80.00
34492;DHT22;20737;49.908;8.126;2023-02-28T08:06:25;7.40;81.10
34492;DHT22;20737;49.908;8.126;2023-02-28T08:08:52;7.20;81.10
34492;DHT22;20737;49.908;8.126;2023-02-28T08:11:21;7.30;80.40
34492;DHT22;20737;49.908;8.126;2023-02-28T08:13:48;7.60;80.70
34492;DHT22;20737;49.908;8.126;2023-02-28T08:16:15;7.80;78.70
34492;DHT22;20737;49.908;8.126;2023-02-28T08:18:46;7.10;81.00
34492;DHT22;20737;49.908;8.126;2023-02-28T08:21:13;6.70;82.00
34492;DHT22;20737;49.908;8.126;2023-02-28T08:23:41;6.60;82.90
34492;DHT22;20737;49.908;8.126;2023-02-28T08:26:08;6.70;83.40
34492;DHT22;20737;49.908;8.126;2023-02-28T08:28:35;6.70;83.10
34492;DHT22;20737;49.908;8.126;2023-02-28T08:31:07;6.10;84.50
34492;DHT22;20737;49.908;8.126;2023-02-28T08:33:34;5.30;87.90
34492;DHT22;20737;49.908;8.126;2023-02-28T08:36:01;4.80;90.60
34492;DHT22;20737;49.908;8.126;2023-02-28T08:38:28;4.80;91.40
34492;DHT22;20737;49.908;8.126;2023-02-28T08:40:59;4.80;91.90
34492;DHT22;20737;49.908;8.126;2023-02-28T08:43:27;4.80;91.70
34492;DHT22;20737;49.908;8.126;2023-02-28T08:45:58;4.70;91.90
34492;DHT22;20737;49.908;8.126;2023-02-28T08:48:26;4.80;92.50
34492;DHT22;20737;49.908;8.126;2023-02-28T08:50:57;5.10;91.50
34492;DHT22;20737;49.908;8.126;2023-02-28T08:53:27;4.90;91.70
34492;DHT22;20737;49.908;8.126;2023-02-28T08:56:01;4.70;91.80
34492;DHT22;20737;49.908;8.126;2023-02-28T08:58:27;4.60;92.80
34492;DHT22;20737;49.908;8.126;2023-02-28T09:00:54;4.50;92.40
34492;DHT22;20737;49.908;8.126;2023-02-28T09:03:24;4.70;92.70
34492;DHT22;20737;49.908;8.126;2023-02-28T09:05:54;4.70;92.40
34492;DHT22;20737;49.908;8.126;2023-02-28T09:08:20;5.00;92.00
34492;DHT22;20737;49.908;8.126;2023-02-28T09:10:47;5.20;91.60
34492;DHT22;20737;49.908;8.126;2023-02-28T09:13:15;5.80;91.30
34492;DHT22;20737;49.908;8.126;2023-02-28T09:15:42;7.90;86.10
34492;DHT22;20737;49.908;8.126;2023-02-28T09:18:09;9.90;77.20
34492;DHT22;20737;49.908;8.126;2023-02-28T09:20:37;12.30;66.10
34492;DHT22;20737;49.908;8.126;2023-02-28T09:23:04;13.60;59.10
34492;DHT22;20737;49.908;8.126;2023-02-28T09:25:31;14.60;55.00
34492;DHT22;20737;49.908;8.126;2023-02-28T09:27:58;15.00;50.30
34492;DHT22;20737;49.908;8.126;2023-02-28T09:30:26;14.30;50.50
34492;DHT22;20737;49.908;8.126;2023-02-28T09:32:53;12.20;53.10
34492;DHT22;20737;49.908;8.126;2023-02-28T09:35:21;11.90;54.80
34492;DHT22;20737;49.908;8.126;2023-02-28T09:37:48;11.70;54.90
34492;DHT22;20737;49.908;8.126;2023-02-28T09:40:17;10.70;55.90
34492;DHT22;20737;49.908;8.126;2023-02-28T09:42:49;10.40;55.70
34492;DHT22;20737;49.908;8.126;2023-02-28T09:45:22;10.10;56.40
34492;DHT22;20737;49.908;8.126;2023-02-28T09:47:55;10.40;56.70
34492;DHT22;20737;49.908;8.126;2023-02-28T09:50:30;12.20;55.30
34492;DHT22;20737;49.908;8.126;2023-02-28T09:52:59;13.00;51.20
34492;DHT22;20737;49.908;8.126;2023-02-28T09:55:30;14.60;48.50
34492;DHT22;20737;49.908;8.126;2023-02-28T09:57:57;15.20;45.70
34492;DHT22;20737;49.908;8.126;2023-02-28T10:00:30;16.20;44.30
34492;DHT22;20737;49.908;8.126;2023-02-28T10:03:20;17.00;41.70
34492;DHT22;20737;49.908;8.126;2023-02-28T10:05:54;17.90;39.80
34492;DHT22;20737;49.908;8.126;2023-02-28T10:08:26;18.20;38.20
34492;DHT22;20737;49.908;8.126;2023-02-28T10:10:57;17.30;39.00
34492;DHT22;20737;49.908;8.126;2023-02-28T10:13:28;16.90;37.90
34492;DHT22;20737;49.908;8.126;2023-02-28T10:16:01;16.90;39.00
34492;DHT22;20737;49.908;8.126;2023-02-28T10:18:38;16.20;38.90
34492;DHT22;20737;49.908;8.126;2023-02-28T10:23:43;18.40;37.00
34492;DHT22;20737;49.908;8.126;2023-02-28T10:26:14;18.40;36.20
34492;DHT22;20737;49.908;8.126;2023-02-28T10:28:42;17.00;36.60
34492;DHT22;20737;49.908;8.126;2023-02-28T10:31:13;16.90;37.00
34492;DHT22;20737;49.908;8.126;2023-02-28T10:33:43;15.80;38.10
34492;DHT22;20737;49.908;8.126;2023-02-28T10:36:13;15.20;40.30
34492;DHT22;20737;49.908;8.126;2023-02-28T10:38:42;16.30;39.20
34492;DHT22;20737;49.908;8.126;2023-02-28T10:41:11;15.00;40.00
34492;DHT22;20737;49.908;8.126;2023-02-28T10:43:39;13.10;42.70
34492;DHT22;20737;49.908;8.126;2023-02-28T10:46:15;10.60;46.80
34492;DHT22;20737;49.908;8.126;2023-02-28T10:49:02;9.00;51.10
34492;DHT22;20737;49.908;8.126;2023-02-28T10:51:36;8.50;52.90
34492;DHT22;20737;49.908;8.126;2023-02-28T10:54:03;7.70;55.40
34492;DHT22;20737;49.908;8.126;2023-02-28T10:56:31;8.10;56.30
34492;DHT22;20737;49.908;8.126;2023-02-28T10:59:00;8.70;55.80
34492;DHT22;20737;49.908;8.126;2023-02-28T11:01:35;9.30;54.80
34492;DHT22;20737;49.908;8.126;2023-02-28T11:04:16;9.60;52.40
34492;DHT22;20737;49.908;8.126;2023-02-28T11:06:43;10.70;52.30
34492;DHT22;20737;49.908;8.126;2023-02-28T11:09:19;11.40;49.50
34492;DHT22;20737;49.908;8.126;2023-02-28T11:11:49;12.70;48.40
34492;DHT22;20737;49.908;8.126;2023-02-28T11:14:20;13.60;45.20
34492;DHT22;20737;49.908;8.126;2023-02-28T11:16:49;14.60;43.70
34492;DHT22;20737;49.908;8.126;2023-02-28T11:19:22;15.60;41.40
34492;DHT22;20737;49.908;8.126;2023-02-28T11:21:55;13.90;41.60
34492;DHT22;20737;49.908;8.126;2023-02-28T11:24:26;12.40;44.50
34492;DHT22;20737;49.908;8.126;2023-02-28T11:26:54;12.70;46.70
34492;DHT22;20737;49.908;8.126;2023-02-28T11:29:23;15.00;43.40
34492;DHT22;20737;49.908;8.126;2023-02-28T11:32:02;16.60;39.10
34492;DHT22;20737;49.908;8.126;2023-02-28T11:34:32;18.00;36.50
34492;DHT22;20737;49.908;8.126;2023-02-28T11:36:59;19.50;35.80
34492;DHT22;20737;49.908;8.126;2023-02-28T11:39:30;18.70;34.10
34492;DHT22;20737;49.908;8.126;2023-02-28T11:45:14;15.60;38.30
34492;DHT22;20737;49.908;8.126;2023-02-28T11:47:47;13.50;42.10
34492;DHT22;20737;49.908;8.126;2023-02-28T11:50:33;12.40;43.80
34492;DHT22;20737;49.908;8.126;2023-02-28T11:53:14;13.40;42.60
34492;DHT22;20737;49.908;8.126;2023-02-28T11:55:45;13.60;42.50
34492;DHT22;20737;49.908;8.126;2023-02-28T11:58:41;15.10;40.90
34492;DHT22;20737;49.908;8.126;2023-02-28T12:01:22;16.80;37.40
34492;DHT22;20737;49.908;8.126;2023-02-28T12:04:01;17.20;36.00
34492;DHT22;20737;49.908;8.126;2023-02-28T12:06:36;16.20;36.50
34492;DHT22;20737;49.908;8.126;2023-02-28T12:09:20;16.40;38.40
34492;DHT22;20737;49.908;8.126;2023-02-28T12:11:56;16.70;37.30
34492;DHT22;20737;49.908;8.126;2023-02-28T12:17:22;14.70;39.60
34492;DHT22;20737;49.908;8.126;2023-02-28T12:19:58;14.40;40.10
34492;DHT22;20737;49.908;8.126;2023-02-28T12:22:30;14.00;41.90
34492;DHT22;20737;49.908;8.126;2023-02-28T12:25:38;14.00;41.80
34492;DHT22;20737;49.908;8.126;2023-02-28T12:28:08;14.50;40.80
34492;DHT22;20737;49.908;8.126;2023-02-28T12:30:38;13.70;41.90
34492;DHT22;20737;49.908;8.126;2023-02-28T12:33:11;15.20;41.30
34492;DHT22;20737;49.908;8.126;2023-02-28T12:35:45;16.60;38.30
34492;DHT22;20737;49.908;8.126;2023-02-28T12:38:18;16.50;37.70
34492;DHT22;20737;49.908;8.126;2023-02-28T12:40:50;16.10;38.40
34492;DHT22;20737;49.908;8.126;2023-02-28T12:43:18;16.50;38.20
34492;DHT22;20737;49.908;8.126;2023-02-28T12:45:49;16.40;37.90
34492;DHT22;20737;49.908;8.126;2023-02-28T12:48:21;16.40;37.70
34492;DHT22;20737;49.908;8.126;2023-02-28T12:50:50;16.50;37.40
34492;DHT22;20737;49.908;8.126;2023-02-28T12:53:25;17.20;37.30
34492;DHT22;20737;49.908;8.126;2023-02-28T12:56:07;17.20;35.90
34492;DHT22;20737;49.908;8.126;2023-02-28T12:58:37;15.50;38.40
34492;DHT22;20737;49.908;8.126;2023-02-28T13:07:30;16.40;39.20
34492;DHT22;20737;49.908;8.126;2023-02-28T13:10:03;15.80;38.40
34492;DHT22;20737;49.908;8.126;2023-02-28T13:12:32;15.40;38.00
34492;DHT22;20737;49.908;8.126;2023-02-28T13:15:06;15.00;39.10
34492;DHT22;20737;49.908;8.126;2023-02-28T13:17:39;14.90;40.70
34492;DHT22;20737;49.908;8.126;2023-02-28T13:20:16;15.00;40.30
34492;DHT22;20737;49.908;8.126;2023-02-28T13:22:47;15.70;39.30
34492;DHT22;20737;49.908;8.126;2023-02-28T13:25:52;16.30;38.20
34492;DHT22;20737;49.908;8.126;2023-02-28T13:34:34;15.50;38.70
34492;DHT22;20737;49.908;8.126;2023-02-28T13:37:35;15.30;39.30
34492;DHT22;20737;49.908;8.126;2023-02-28T13:40:28;14.80;39.20
34492;DHT22;20737;49.908;8.126;2023-02-28T13:42:57;14.80;39.60
34492;DHT22;20737;49.908;8.126;2023-02-28T13:45:26;15.70;39.40
34492;DHT22;20737;49.908;8.126;2023-02-28T13:47:56;15.40;38.40
34492;DHT22;20737;49.908;8.126;2023-02-28T13:50:30;15.10;39.40
34492;DHT22;20737;49.908;8.126;2023-02-28T13:53:16;14.50;39.60
34492;DHT22;20737;49.908;8.126;2023-02-28T13:55:48;13.60;41.60
34492;DHT22;20737;49.908;8.126;2023-02-28T13:58:32;13.30;42.20
34492;DHT22;20737;49.908;8.126;2023-02-28T14:01:17;13.50;42.60
34492;DHT22;20737;49.908;8.126;2023-02-28T14:04:06;13.00;42.80
34492;DHT22;20737;49.908;8.126;2023-02-28T14:06:37;13.90;42.40
34492;DHT22;20737;49.908;8.126;2023-02-28T14:09:17;14.20;41.20
34492;DHT22;20737;49.908;8.126;2023-02-28T14:11:45;13.30;42.10
34492;DHT22;20737;49.908;8.126;2023-02-28T14:14:54;13.20;43.10
34492;DHT22;20737;49.908;8.126;2023-02-28T14:17:21;13.80;43.00
34492;DHT22;20737;49.908;8.126;2023-02-28T14:19:48;13.80;42.00
34492;DHT22;20737;49.908;8.126;2023-02-28T14:22:36;14.10;42.10
34492;DHT22;20737;49.908;8.126;2023-02-28T14:25:11;14.30;41.80
34492;DHT22;20737;49.908;8.126;2023-02-28T14:27:47;14.10;41.10
34492;DHT22;20737;49.908;8.126;2023-02-28T14:30:37;14.50;41.70
34492;DHT22;20737;49.908;8.126;2023-02-28T14:33:31;14.10;41.40
34492;DHT22;20737;49.908;8.126;2023-02-28T14:36:10;14.60;41.10
34492;DHT22;20737;49.908;8.126;2023-02-28T14:38:43;14.40;41.30
34492;DHT22;20737;49.908;8.126;2023-02-28T14:41:28;14.70;41.10
34492;DHT22;20737;49.908;8.126;2023-02-28T14:43:57;14.30;40.80
34492;DHT22;20737;49.908;8.126;2023-02-28T14:46:28;14.30;41.80
34492;DHT22;20737;49.908;8.126;2023-02-28T14:48:56;14.10;41.90
34492;DHT22;20737;49.908;8.126;2023-02-28T14:51:25;14.30;42.00
34492;DHT22;20737;49.908;8.126;2023-02-28T14:53:57;14.10;41.80
34492;DHT22;20737;49.908;8.126;2023-02-28T14:56:26;14.00;42.10
34492;DHT22;20737;49.908;8.126;2023-02-28T14:58:56;14.20;42.10
34492;DHT22;20737;49.908;8.126;2023-02-28T15:01:26;14.70;41.10
34492;DHT22;20737;49.908;8.126;2023-02-28T15:04:01;14.20;41.10
34492;DHT22;20737;49.908;8.126;2023-02-28T15:06:28;14.30;41.70
34492;DHT22;20737;49.908;8.126;2023-02-28T15:09:09;14.10;42.30
34492;DHT22;20737;49.908;8.126;2023-02-28T15:11:37;13.70;42.70
34492;DHT22;20737;49.908;8.126;2023-02-28T15:14:05;13.40;43.30
34492;DHT22;20737;49.908;8.126;2023-02-28T15:16:36;13.50;42.80
34492;DHT22;20737;49.908;8.126;2023-02-28T15:19:06;13.50;42.90
34492;DHT22;20737;49.908;8.126;2023-02-28T15:21:39;12.60;44.20
34492;DHT22;20737;49.908;8.126;2023-02-28T15:24:12;11.80;46.20
34492;DHT22;20737;49.908;8.126;2023-02-28T15:26:43;10.50;48.30
34492;DHT22;20737;49.908;8.126;2023-02-28T15:29:15;9.40;50.60
34492;DHT22;20737;49.908;8.126;2023-02-28T15:31:46;8.50;52.40
34492;DHT22;20737;49.908;8.126;2023-02-28T15:34:19;7.90;54.30
34492;DHT22;20737;49.908;8.126;2023-02-28T15:36:46;7.60;55.10
34492;DHT22;20737;49.908;8.126;2023-02-28T15:39:20;7.50;56.10
34492;DHT22;20737;49.908;8.126;2023-02-28T15:41:47;7.20;57.00
34492;DHT22;20737;49.908;8.126;2023-02-28T15:44:15;7.10;56.90
34492;DHT22;20737;49.908;8.126;2023-02-28T15:46:52;7.10;57.70
34492;DHT22;20737;49.908;8.126;2023-02-28T15:49:21;6.80;57.70
34492;DHT22;20737;49.908;8.126;2023-02-28T15:51:49;6.60;58.90
34492;DHT22;20737;49.908;8.126;2023-02-28T15:54:20;6.70;59.50
34492;DHT22;20737;49.908;8.126;2023-02-28T15:56:51;6.60;59.40
34492;DHT22;20737;49.908;8.126;2023-02-28T15:59:21;6.60;60.20
34492;DHT22;20737;49.908;8.126;2023-02-28T16:02:03;6.40;60.00
34492;DHT22;20737;49.908;8.126;2023-02-28T16:04:32;6.50;60.60
34492;DHT22;20737;49.908;8.126;2023-02-28T16:07:04;6.40;60.40
34492;DHT22;20737;49.908;8.126;2023-02-28T16:09:31;6.70;60.40
34492;DHT22;20737;49.908;8.126;2023-02-28T16:12:00;7.10;59.90
34492;DHT22;20737;49.908;8.126;2023-02-28T16:14:29;7.80;58.40
34492;DHT22;20737;49.908;8.126;2023-02-28T16:17:09;7.90;57.50
34492;DHT22;20737;49.908;8.126;2023-02-28T16:19:39;8.40;57.00
34492;DHT22;20737;49.908;8.126;2023-02-28T16:22:08;8.30;56.20
34492;DHT22;20737;49.908;8.126;2023-02-28T16:24:35;8.10;57.50
34492;DHT22;20737;49.908;8.126;2023-02-28T16:27:02;8.10;57.40
34492;DHT22;20737;49.908;8.126;2023-02-28T16:29:32;8.10;57.40
34492;DHT22;20737;49.908;8.126;2023-02-28T16:32:01;7.70;57.80